Time;durP1;ratioP1;P1;durP2;ratioP2;P2;SDS_P1;SDS_P2;PMS_P1;PMS_P2;Temp;Humidity;BMP_temperature;BMP_pressure;BME280_temperature;BME280_humidity;BME280_pressure;Samples;Min_cycle;Max_cycle;Signal;HPM_P1;HPM_P2
2022/11/15 00:01:43;;;;;;;;;;;;;;;;;;6236735;22;19919;-94
2022/11/15 00:04:10;;;;;;;;;;;;;;;;;;6239486;22;19919;-93
2022/11/15 00:06:54;;;;;;;;;;;;;;;;;;6238874;22;19923;-92
2022/11/15 00:09:20;;;;;;;;;;;;;;;;;;6237756;22;20363;-93
2022/11/15 00:11:58;;;;;;;;;;;;;;;;;;6240591;22;19915;-93
2022/11/15 00:14:24;;;;;;;;;;;;;;;;;;6235618;22;19981;-93
2022/11/15 00:16:53;;;;;;;;;;;;;;;;;;6237649;22;19968;-93
2022/11/15 00:19:34;;;;;;;;;;;;;;;;;;6243400;22;19919;-93
2022/11/15 00:44:05;;;;;;;;;;;;;;;;;;6080482;22;19923;-89
2022/11/15 00:46:31;;;;;;;;;;;;;;;;;;6205436;22;20446;-88
2022/11/15 00:48:57;;;;;;;;;;;;;;;;;;6199316;22;19919;-88
2022/11/15 00:51:26;;;;;;;;;;;;;;;;;;6193931;22;20601;-88
2022/11/15 00:53:52;;;;;;;;;;;;;;;;;;6199131;22;19919;-89
2022/11/15 00:56:18;;;;;;;;;;;;;;;;;;6198870;22;20344;-88
2022/11/15 00:58:44;;;;;;;;;;;;;;;;;;6205534;22;19919;-89
2022/11/15 01:01:10;;;;;;;;;;;;;;;;;;6205177;22;19923;-88
2022/11/15 01:03:38;;;;;;;;;;;;;;;;;;6203835;22;19919;-88
2022/11/15 01:06:04;;;;;;;;;;;;;;;;;;6234630;22;19919;-88
2022/11/15 01:08:30;;;;;;;;;;;;;;;;;;6207649;22;19923;-89
2022/11/15 01:10:56;;;;;;;;;;;;;;;;;;6212152;22;19923;-88
2022/11/15 01:13:22;;;;;;;;;;;;;;;;;;6209271;22;20259;-89
2022/11/15 01:15:48;;;;;;;;;;;;;;;;;;6210594;22;19926;-89
2022/11/15 01:18:14;;;;;;;;;;;;;;;;;;6211855;22;19919;-88
2022/11/15 01:20:40;;;;;;;;;;;;;;;;;;6208341;22;19988;-89
2022/11/15 01:23:09;;;;;;;;;;;;;;;;;;6222652;23;20411;-88
2022/11/15 01:25:35;;;;;;;;;;;;;;;;;;6230205;23;19926;-88
2022/11/15 01:28:01;;;;;;;;;;;;;;;;;;6233722;23;19915;-89
2022/11/15 01:30:27;;;;;;;;;;;;;;;;;;6229601;23;19927;-88
2022/11/15 01:32:53;;;;;;;;;;;;;;;;;;6229681;23;20800;-88
2022/11/15 01:35:19;;;;;;;;;;;;;;;;;;6226572;23;19926;-88
2022/11/15 01:37:45;;;;;;;;;;;;;;;;;;6227867;23;20018;-88
2022/11/15 01:40:11;;;;;;;;;;;;;;;;;;6228288;23;19988;-88
2022/11/15 01:42:37;;;;;;;;;;;;;;;;;;6227479;23;20336;-88
2022/11/15 01:45:03;;;;;;;;;;;;;;;;;;6228115;23;19934;-88
2022/11/15 01:47:30;;;;;;;;;;;;;;;;;;6224136;23;19927;-88
2022/11/15 01:49:55;;;;;;;;;;;;;;;;;;6228273;23;19966;-88
2022/11/15 01:52:21;;;;;;;;;;;;;;;;;;6225526;23;19916;-89
2022/11/15 01:54:47;;;;;;;;;;;;;;;;;;6230195;23;19927;-88
2022/11/15 01:57:14;;;;;;;;;;;;;;;;;;6228486;23;20010;-89
2022/11/15 01:59:40;;;;;;;;;;;;;;;;;;6227340;23;19973;-88
2022/11/15 02:02:06;;;;;;;;;;;;;;;;;;6228125;23;19927;-89
2022/11/15 02:04:34;;;;;;;;;;;;;;;;;;6228014;23;19915;-88
2022/11/15 02:07:00;;;;;;;;;;;;;;;;;;6231495;23;19920;-88
2022/11/15 02:09:26;;;;;;;;;;;;;;;;;;6252852;22;20022;-88
2022/11/15 02:11:52;;;;;;;;;;;;;;;;;;6230942;23;19919;-88
2022/11/15 02:14:18;;;;;;;;;;;;;;;;;;6228655;23;20374;-89
2022/11/15 02:16:44;;;;;;;;;;;;;;;;;;6229380;23;19919;-88
2022/11/15 02:19:10;;;;;;;;;;;;;;;;;;6229316;23;19923;-88
2022/11/15 02:21:36;;;;;;;;;;;;;;;;;;6228449;22;20828;-89
2022/11/15 02:24:02;;;;;;;;;;;;;;;;;;6231369;23;20378;-89
2022/11/15 02:26:28;;;;;;;;;;;;;;;;;;6226372;23;19951;-89
2022/11/15 02:28:56;;;;;;;;;;;;;;;;;;6230198;23;19922;-89
2022/11/15 02:31:22;;;;;;;;;;;;;;;;;;6230047;23;19926;-89
2022/11/15 02:33:48;;;;;;;;;;;;;;;;;;6233570;23;20329;-89
2022/11/15 02:36:14;;;;;;;;;;;;;;;;;;6231034;23;19919;-88
2022/11/15 02:38:40;;;;;;;;;;;;;;;;;;6225315;23;19919;-88
2022/11/15 02:41:09;;;;;;;;;;;;;;;;;;6227426;23;19919;-88
2022/11/15 02:46:20;;;;;;;;;;;;;;;;;;6226512;23;20301;-89
2022/11/15 02:48:45;;;;;;;;;;;;;;;;;;6230488;23;20384;-89
2022/11/15 02:51:11;;;;;;;;;;;;;;;;;;6227615;23;19997;-89
2022/11/15 02:53:37;;;;;;;;;;;;;;;;;;6224914;23;19919;-89
2022/11/15 02:56:03;;;;;;;;;;;;;;;;;;6227863;23;19950;-88
2022/11/15 02:58:29;;;;;;;;;;;;;;;;;;6229979;23;20362;-88
2022/11/15 03:00:58;;;;;;;;;;;;;;;;;;6233286;23;19945;-88
2022/11/15 03:03:24;;;;;;;;;;;;;;;;;;6230242;23;19927;-89
2022/11/15 03:05:50;;;;;;;;;;;;;;;;;;6232340;23;20265;-88
2022/11/15 03:08:18;;;;;;;;;;;;;;;;;;6233003;23;19927;-89
2022/11/15 03:10:44;;;;;;;;;;;;;;;;;;6234889;23;19923;-88
2022/11/15 03:13:10;;;;;;;;;;;;;;;;;;6234731;23;20337;-88
2022/11/15 03:15:36;;;;;;;;;;;;;;;;;;6229168;23;20530;-88
2022/11/15 03:18:02;;;;;;;;;;;;;;;;;;6231571;23;19938;-88
2022/11/15 03:20:28;;;;;;;;;;;;;;;;;;6228599;23;19924;-88
2022/11/15 03:22:54;;;;;;;;;;;;;;;;;;6229759;22;20244;-88
2022/11/15 03:25:20;;;;;;;;;;;;;;;;;;6227943;23;19919;-89
2022/11/15 03:27:46;;;;;;;;;;;;;;;;;;6229450;23;19920;-89
2022/11/15 03:30:12;;;;;;;;;;;;;;;;;;6229385;23;19920;-89
2022/11/15 03:32:38;;;;;;;;;;;;;;;;;;6224519;23;20033;-89
2022/11/15 03:35:04;;;;;;;;;;;;;;;;;;6229287;23;20363;-88
2022/11/15 03:37:30;;;;;;;;;;;;;;;;;;6226134;23;19924;-88
2022/11/15 03:39:56;;;;;;;;;;;;;;;;;;6230658;23;19927;-88
2022/11/15 03:42:25;;;;;;;;;;;;;;;;;;6227379;23;19915;-89
2022/11/15 03:44:51;;;;;;;;;;;;;;;;;;6228959;23;19966;-88
2022/11/15 03:47:17;;;;;;;;;;;;;;;;;;6227107;23;19926;-88
2022/11/15 03:49:43;;;;;;;;;;;;;;;;;;6231886;23;19963;-88
2022/11/15 03:52:09;;;;;;;;;;;;;;;;;;6229835;23;20260;-88
2022/11/15 03:54:35;;;;;;;;;;;;;;;;;;6227491;23;19916;-88
2022/11/15 03:57:01;;;;;;;;;;;;;;;;;;6230538;23;19923;-88
2022/11/15 03:59:27;;;;;;;;;;;;;;;;;;6228847;23;20301;-88
2022/11/15 04:01:53;;;;;;;;;;;;;;;;;;6228482;23;20014;-88
2022/11/15 04:04:22;;;;;;;;;;;;;;;;;;6227531;23;19942;-88
2022/11/15 04:06:48;;;;;;;;;;;;;;;;;;6229662;23;20323;-89
2022/11/15 04:09:16;;;;;;;;;;;;;;;;;;6231144;23;19923;-88
2022/11/15 04:11:42;;;;;;;;;;;;;;;;;;6228406;23;19924;-89
2022/11/15 04:14:08;;;;;;;;;;;;;;;;;;6229513;23;19960;-89
2022/11/15 04:16:34;;;;;;;;;;;;;;;;;;6227396;23;20329;-89
2022/11/15 04:24:30;;;;;;;;;;;;;;;;;;6225428;23;19924;-89
2022/11/15 04:26:58;;;;;;;;;;;;;;;;;;6228886;23;19954;-89
2022/11/15 04:29:34;;;;;;;;;;;;;;;;;;6227250;23;19981;-89
2022/11/15 04:32:00;;;;;;;;;;;;;;;;;;6229083;23;20391;-89
2022/11/15 04:34:26;;;;;;;;;;;;;;;;;;6226867;23;19991;-89
2022/11/15 04:39:39;;;;;;;;;;;;;;;;;;6227412;23;19919;-89
2022/11/15 04:42:05;;;;;;;;;;;;;;;;;;6230691;23;19924;-89
2022/11/15 04:44:32;;;;;;;;;;;;;;;;;;6227556;23;19919;-89
2022/11/15 04:46:57;;;;;;;;;;;;;;;;;;6224586;23;19926;-88
2022/11/15 04:49:26;;;;;;;;;;;;;;;;;;6224481;23;19928;-89
2022/11/15 04:51:55;;;;;;;;;;;;;;;;;;6230915;23;20193;-89
2022/11/15 04:54:21;;;;;;;;;;;;;;;;;;6226143;23;19926;-89
2022/11/15 04:56:49;;;;;;;;;;;;;;;;;;6230574;23;20319;-89
2022/11/15 04:59:18;;;;;;;;;;;;;;;;;;6254493;22;19925;-89
2022/11/15 05:01:44;;;;;;;;;;;;;;;;;;6229044;23;19919;-89
2022/11/15 05:04:20;;;;;;;;;;;;;;;;;;6226692;23;19924;-88
2022/11/15 05:06:46;;;;;;;;;;;;;;;;;;6228940;23;19920;-89
2022/11/15 05:09:14;;;;;;;;;;;;;;;;;;6229163;23;20324;-88
2022/11/15 05:11:43;;;;;;;;;;;;;;;;;;6252046;22;20239;-89
2022/11/15 05:14:09;;;;;;;;;;;;;;;;;;6229509;23;20260;-89
2022/11/15 05:16:35;;;;;;;;;;;;;;;;;;6226288;23;19930;-89
2022/11/15 05:19:01;;;;;;;;;;;;;;;;;;6229052;23;19919;-89
2022/11/15 05:21:27;;;;;;;;;;;;;;;;;;6226966;23;20283;-89
2022/11/15 05:23:53;;;;;;;;;;;;;;;;;;6229249;22;19934;-89
2022/11/15 05:26:19;;;;;;;;;;;;;;;;;;6227031;23;19916;-89
2022/11/15 05:28:45;;;;;;;;;;;;;;;;;;6228703;23;19939;-88
2022/11/15 05:31:11;;;;;;;;;;;;;;;;;;6228835;23;19930;-89
2022/11/15 05:33:37;;;;;;;;;;;;;;;;;;6227179;23;20433;-89
2022/11/15 05:36:03;;;;;;;;;;;;;;;;;;6227443;23;19919;-89
2022/11/15 05:38:29;;;;;;;;;;;;;;;;;;6225411;23;19927;-89
2022/11/15 05:40:55;;;;;;;;;;;;;;;;;;6226350;23;19920;-89
2022/11/15 05:43:21;;;;;;;;;;;;;;;;;;6223411;23;20287;-90
2022/11/15 05:45:53;;;;;;;;;;;;;;;;;;6228859;23;19978;-89
2022/11/15 05:48:19;;;;;;;;;;;;;;;;;;6226892;23;19919;-89
2022/11/15 05:50:45;;;;;;;;;;;;;;;;;;6229171;23;19930;-89
2022/11/15 05:53:11;;;;;;;;;;;;;;;;;;6227079;23;19924;-90
2022/11/15 05:55:37;;;;;;;;;;;;;;;;;;6224304;23;20829;-90
2022/11/15 05:58:05;;;;;;;;;;;;;;;;;;6227340;23;20149;-89
2022/11/15 06:00:31;;;;;;;;;;;;;;;;;;6225385;23;20233;-89
2022/11/15 06:02:57;;;;;;;;;;;;;;;;;;6228536;23;19919;-89
2022/11/15 06:05:23;;;;;;;;;;;;;;;;;;6224455;23;19919;-90
2022/11/15 06:07:49;;;;;;;;;;;;;;;;;;6231571;23;19930;-88
2022/11/15 06:10:21;;;;;;;;;;;;;;;;;;6229766;23;19924;-88
2022/11/15 06:12:50;;;;;;;;;;;;;;;;;;6255109;22;19923;-88
2022/11/15 06:15:19;;;;;;;;;;;;;;;;;;6230979;23;19920;-88
2022/11/15 06:17:45;;;;;;;;;;;;;;;;;;6230277;23;19924;-89
2022/11/15 06:20:11;;;;;;;;;;;;;;;;;;6230703;23;19923;-89
2022/11/15 06:22:37;;;;;;;;;;;;;;;;;;6230202;22;19928;-89
2022/11/15 06:25:03;;;;;;;;;;;;;;;;;;6233161;23;20428;-89
2022/11/15 06:27:29;;;;;;;;;;;;;;;;;;6229864;23;19926;-89
2022/11/15 06:29:55;;;;;;;;;;;;;;;;;;6232692;23;19969;-89
2022/11/15 06:32:21;;;;;;;;;;;;;;;;;;6231090;23;19920;-88
2022/11/15 06:34:47;;;;;;;;;;;;;;;;;;6233679;23;19926;-88
2022/11/15 06:37:13;;;;;;;;;;;;;;;;;;6232448;23;19945;-88
2022/11/15 06:39:39;;;;;;;;;;;;;;;;;;6230446;23;19919;-88
2022/11/15 06:42:05;;;;;;;;;;;;;;;;;;6232818;23;19969;-88
2022/11/15 06:44:31;;;;;;;;;;;;;;;;;;6227143;23;20355;-89
2022/11/15 06:46:57;;;;;;;;;;;;;;;;;;6231138;23;20010;-88
2022/11/15 06:49:22;;;;;;;;;;;;;;;;;;6223213;23;19929;-88
2022/11/15 06:51:48;;;;;;;;;;;;;;;;;;6231075;23;19915;-88
2022/11/15 06:54:14;;;;;;;;;;;;;;;;;;6228027;23;20018;-88
2022/11/15 06:56:40;;;;;;;;;;;;;;;;;;6226229;23;19923;-88
2022/11/15 06:59:06;;;;;;;;;;;;;;;;;;6227785;23;20021;-88
2022/11/15 07:01:32;;;;;;;;;;;;;;;;;;6227171;23;19926;-88
2022/11/15 07:03:58;;;;;;;;;;;;;;;;;;6230569;23;19915;-87
2022/11/15 07:06:24;;;;;;;;;;;;;;;;;;6253417;22;19994;-87
2022/11/15 07:08:50;;;;;;;;;;;;;;;;;;6232528;23;20303;-88
2022/11/15 07:11:16;;;;;;;;;;;;;;;;;;6233907;23;19924;-88
2022/11/15 07:13:42;;;;;;;;;;;;;;;;;;6233147;23;20206;-88
2022/11/15 07:22:22;;;;;;;;;;;;;;;;;;6173298;23;20332;-89
2022/11/15 07:24:48;;;;;;;;;;;;;;;;;;6143622;23;20334;-88
2022/11/15 07:27:17;;;;;;;;;;;;;;;;;;6172246;23;19962;-89
2022/11/15 07:38:05;;;;;;;;;;;;;;;;;;6269873;22;19920;-93
2022/11/15 07:43:39;;;;;;;;;;;;;;;;;;6238990;22;19915;-94
2022/11/15 07:46:18;;;;;;;;;;;;;;;;;;6220302;22;20347;-93
2022/11/15 07:49:02;;;;;;;;;;;;;;;;;;6221195;22;20052;-93
2022/11/15 07:51:45;;;;;;;;;;;;;;;;;;;;;
2022/11/15 07:54:13;;;;;;;;;;;;;;;;;;6244187;22;19915;-93
2022/11/15 07:56:49;;;;;;;;;;;;;;;;;;6220427;22;19916;-93
2022/11/15 07:59:28;;;;;;;;;;;;;;;;;;6218548;22;19946;-93
2022/11/15 08:02:17;;;;;;;;;;;;;;;;;;;;;
2022/11/15 08:04:51;;;;;;;;;;;;;;;;;;6243408;22;19951;-93
2022/11/15 08:07:24;;;;;;;;;;;;;;;;;;6218324;22;19915;-94
2022/11/15 08:10:18;;;;;;;;;;;;;;;;;;;;;
2022/11/15 08:13:00;;;;;;;;;;;;;;;;;;6279562;22;20354;-94
2022/11/15 08:18:29;;;;;;;;;;;;;;;;;;6254489;22;19915;-93
2022/11/15 08:21:08;;;;;;;;;;;;;;;;;;6212736;23;19923;-93
2022/11/15 08:26:39;;;;;;;;;;;;;;;;;;6195286;23;19990;-93
2022/11/15 08:29:21;;;;;;;;;;;;;;;;;;6179639;23;19916;-93
2022/11/15 08:32:19;;;;;;;;;;;;;;;;;;;;;
2022/11/15 08:34:53;;;;;;;;;;;;;;;;;;;;;
2022/11/15 08:37:42;;;;;;;;;;;;;;;;;;6197275;23;19931;-93
2022/11/15 08:40:22;;;;;;;;;;;;;;;;;;;;;
2022/11/15 08:45:42;;;;;;;;;;;;;;;;;;6180981;23;19916;-94
2022/11/15 08:48:37;;;;;;;;;;;;;;;;;;6194354;23;19915;-93
2022/11/15 08:51:25;;;;;;;;;;;;;;;;;;6158711;23;19930;-93
2022/11/15 08:54:06;;;;;;;;;;;;;;;;;;6158094;23;19919;-93
2022/11/15 08:56:48;;;;;;;;;;;;;;;;;;;;;
2022/11/15 09:02:43;;;;;;;;;;;;;;;;;;6125731;23;19943;-93
2022/11/15 09:08:01;;;;;;;;;;;;;;;;;;6197951;23;19920;-93
2022/11/15 09:10:43;;;;;;;;;;;;;;;;;;;;;
2022/11/15 09:16:31;;;;;;;;;;;;;;;;;;6215435;23;20256;-93
2022/11/15 09:25:02;;;;;;;;;;;;;;;;;;6207938;23;19990;-93
2022/11/15 09:27:39;;;;;;;;;;;;;;;;;;6210528;23;19926;-94
2022/11/15 09:30:08;;;;;;;;;;;;;;;;;;6210204;23;19973;-93
2022/11/15 09:32:40;;;;;;;;;;;;;;;;;;6210061;23;19958;-93
2022/11/15 09:38:15;;;;;;;;;;;;;;;;;;6250370;22;20321;-93
2022/11/15 09:40:57;;;;;;;;;;;;;;;;;;6240714;22;19962;-93
2022/11/15 09:43:32;;;;;;;;;;;;;;;;;;6237228;22;19919;-93
2022/11/15 09:49:07;;;;;;;;;;;;;;;;;;6227973;22;20006;-94
2022/11/15 09:51:36;;;;;;;;;;;;;;;;;;6240371;22;19945;-94
2022/11/15 09:54:05;;;;;;;;;;;;;;;;;;6239884;22;19947;-95
2022/11/15 09:56:45;;;;;;;;;;;;;;;;;;;;;
2022/11/15 09:59:28;;;;;;;;;;;;;;;;;;6240610;22;20324;-94
2022/11/15 10:02:04;;;;;;;;;;;;;;;;;;6240883;22;19938;-93
2022/11/15 10:04:30;;;;;;;;;;;;;;;;;;6234070;23;19926;-93
2022/11/15 10:07:04;;;;;;;;;;;;;;;;;;6237457;22;19923;-93
2022/11/15 10:18:17;;;;;;;;;;;;;;;;;;6239459;23;19926;-93
2022/11/15 10:23:59;;;;;;;;;;;;;;;;;;;;;
2022/11/15 10:26:41;;;;;;;;;;;;;;;;;;6261259;22;19991;-93
2022/11/15 10:29:26;;;;;;;;;;;;;;;;;;6235661;23;19962;-93
2022/11/15 10:31:57;;;;;;;;;;;;;;;;;;6237825;23;19943;-91
2022/11/15 10:34:29;;;;;;;;;;;;;;;;;;6236472;23;19919;-94
2022/11/15 10:37:13;;;;;;;;;;;;;;;;;;6239505;23;19931;-93
2022/11/15 10:43:02;;;;;;;;;;;;;;;;;;;;;
2022/11/15 10:49:18;;;;;;;;;;;;;;;;;;;;;
2022/11/15 11:01:18;;;;;;;;;;;;;;;;;;6040643;23;19926;-93
2022/11/15 11:04:19;;;;;;;;;;;;;;;;;;5969860;23;19919;-94
2022/11/15 11:07:22;;;;;;;;;;;;;;;;;;6149293;23;19977;-93
2022/11/15 11:09:54;;;;;;;;;;;;;;;;;;6209070;23;19927;-94
2022/11/15 11:12:37;;;;;;;;;;;;;;;;;;6210660;23;19916;-93
2022/11/15 11:18:27;;;;;;;;;;;;;;;;;;6134958;23;19924;-94
2022/11/15 11:23:45;;;;;;;;;;;;;;;;;;6064267;23;19960;-94
2022/11/15 11:26:30;;;;;;;;;;;;;;;;;;6139552;23;19918;-94
2022/11/15 11:35:27;;;;;;;;;;;;;;;;;;6143284;23;20273;-94
2022/11/15 11:38:21;;;;;;;;;;;;;;;;;;;;;
2022/11/15 11:41:25;;;;;;;;;;;;;;;;;;;;;
2022/11/15 11:44:24;;;;;;;;;;;;;;;;;;6096313;23;19968;-94
2022/11/15 11:49:47;;;;;;;;;;;;;;;;;;6074150;23;19944;-93
2022/11/15 11:52:27;;;;;;;;;;;;;;;;;;;;;
2022/11/15 11:55:28;;;;;;;;;;;;;;;;;;;;;
2022/11/15 12:01:26;;;;;;;;;;;;;;;;;;6150340;23;19935;-94
2022/11/15 12:07:19;;;;;;;;;;;;;;;;;;;;;
2022/11/15 12:09:58;;;;;;;;;;;;;;;;;;6183850;23;20003;-94
2022/11/15 12:12:47;;;;;;;;;;;;;;;;;;6175326;23;19920;-94
2022/11/15 12:18:45;;;;;;;;;;;;;;;;;;;;;
2022/11/15 12:21:25;;;;;;;;;;;;;;;;;;6187480;23;19920;-94
2022/11/15 12:29:47;;;;;;;;;;;;;;;;;;6281506;22;19927;-95
2022/11/15 12:35:09;;;;;;;;;;;;;;;;;;6242458;22;20384;-94
2022/11/15 12:40:46;;;;;;;;;;;;;;;;;;6225742;22;19915;-93
2022/11/15 12:49:15;;;;;;;;;;;;;;;;;;6034346;23;19917;-94
2022/11/15 13:00:21;;;;;;;;;;;;;;;;;;6032645;23;19917;-92
2022/11/15 13:06:06;;;;;;;;;;;;;;;;;;6005861;23;19922;-93
2022/11/15 13:14:34;;;;;;;;;;;;;;;;;;6033339;23;19924;-93
2022/11/15 13:17:11;;;;;;;;;;;;;;;;;;6059658;23;19921;-92
2022/11/15 13:32:13;;;;;;;;;;;;;;;;;;6101649;23;19928;-92
2022/11/15 13:34:39;;;;;;;;;;;;;;;;;;6187796;23;19920;-93
2022/11/15 13:39:59;;;;;;;;;;;;;;;;;;6193493;23;19924;-94
2022/11/15 13:48:38;;;;;;;;;;;;;;;;;;;;;
2022/11/15 13:51:10;;;;;;;;;;;;;;;;;;6057713;23;19928;-94
2022/11/15 13:53:46;;;;;;;;;;;;;;;;;;;;;
2022/11/15 13:59:28;;;;;;;;;;;;;;;;;;6120310;23;19952;-93
2022/11/15 14:02:06;;;;;;;;;;;;;;;;;;6116299;23;20007;-93
2022/11/15 14:04:35;;;;;;;;;;;;;;;;;;6090125;23;19921;-93
2022/11/15 14:07:23;;;;;;;;;;;;;;;;;;;;;
2022/11/15 14:09:52;;;;;;;;;;;;;;;;;;6120407;23;19968;-94
2022/11/15 14:15:27;;;;;;;;;;;;;;;;;;6109851;23;19951;-93
2022/11/15 14:17:56;;;;;;;;;;;;;;;;;;6096984;23;19951;-93
2022/11/15 14:20:46;;;;;;;;;;;;;;;;;;6093231;23;20010;-93
2022/11/15 14:23:36;;;;;;;;;;;;;;;;;;6182169;23;19919;-93
2022/11/15 14:26:25;;;;;;;;;;;;;;;;;;6203917;23;20495;-93
2022/11/15 14:29:04;;;;;;;;;;;;;;;;;;;;;
2022/11/15 14:31:46;;;;;;;;;;;;;;;;;;;;;
2022/11/15 14:34:35;;;;;;;;;;;;;;;;;;6247184;23;20264;-94
2022/11/15 14:37:14;;;;;;;;;;;;;;;;;;;;;
2022/11/15 14:43:21;;;;;;;;;;;;;;;;;;;;;
2022/11/15 14:48:39;;;;;;;;;;;;;;;;;;6147454;23;19920;-93
2022/11/15 14:51:26;;;;;;;;;;;;;;;;;;6148291;23;19974;-96
2022/11/15 14:57:09;;;;;;;;;;;;;;;;;;6126750;23;19951;-94
2022/11/15 14:59:56;;;;;;;;;;;;;;;;;;;;;
2022/11/15 15:02:28;;;;;;;;;;;;;;;;;;6146632;23;19940;-94
2022/11/15 15:11:31;;;;;;;;;;;;;;;;;;6182828;23;19970;-95
2022/11/15 15:14:12;;;;;;;;;;;;;;;;;;6139942;23;19917;-95
2022/11/15 15:17:12;;;;;;;;;;;;;;;;;;;;;
2022/11/15 15:22:48;;;;;;;;;;;;;;;;;;6109777;23;19921;-95
2022/11/15 15:25:27;;;;;;;;;;;;;;;;;;6117529;23;19916;-95
2022/11/15 15:37:03;;;;;;;;;;;;;;;;;;5983275;24;20344;-95
2022/11/15 15:39:57;;;;;;;;;;;;;;;;;;;;;
2022/11/15 18:08:28;;;;;;;;;;;;;;;;;;6270442;22;19918;-90
2022/11/15 18:10:54;;;;;;;;;;;;;;;;;;6234223;22;20405;-89
2022/11/15 18:13:20;;;;;;;;;;;;;;;;;;6202845;22;19949;-89
2022/11/15 18:15:46;;;;;;;;;;;;;;;;;;6231563;22;20324;-89
2022/11/15 18:18:12;;;;;;;;;;;;;;;;;;6208721;22;19983;-88
2022/11/15 18:20:38;;;;;;;;;;;;;;;;;;6202144;22;20381;-89
2022/11/15 18:23:04;;;;;;;;;;;;;;;;;;6214825;23;20028;-89
2022/11/15 18:25:30;;;;;;;;;;;;;;;;;;6224088;23;19954;-89
2022/11/15 18:27:56;;;;;;;;;;;;;;;;;;6229257;23;20277;-88
2022/11/15 18:30:22;;;;;;;;;;;;;;;;;;6223331;23;20355;-89
2022/11/15 18:32:49;;;;;;;;;;;;;;;;;;6226696;23;19987;-88
2022/11/15 18:35:15;;;;;;;;;;;;;;;;;;6228045;23;20483;-89
2022/11/15 18:37:41;;;;;;;;;;;;;;;;;;6225672;23;20447;-88
2022/11/15 18:40:07;;;;;;;;;;;;;;;;;;6225354;23;19990;-88
2022/11/15 18:42:33;;;;;;;;;;;;;;;;;;6221097;23;20006;-88
2022/11/15 18:44:59;;;;;;;;;;;;;;;;;;6228462;23;20404;-89
2022/11/15 18:47:29;;;;;;;;;;;;;;;;;;6224702;23;21505;-88
2022/11/15 18:49:58;;;;;;;;;;;;;;;;;;6226177;23;19924;-89
2022/11/15 18:52:24;;;;;;;;;;;;;;;;;;6228669;23;19920;-89
2022/11/15 18:54:50;;;;;;;;;;;;;;;;;;6227944;23;19923;-89
2022/11/15 18:57:16;;;;;;;;;;;;;;;;;;6229904;23;19946;-89
2022/11/15 18:59:42;;;;;;;;;;;;;;;;;;6229627;23;19919;-88
2022/11/15 19:02:09;;;;;;;;;;;;;;;;;;6228226;23;19998;-89
2022/11/15 19:04:35;;;;;;;;;;;;;;;;;;6225085;23;19939;-89
2022/11/15 19:07:01;;;;;;;;;;;;;;;;;;6227141;23;19931;-88
2022/11/15 19:09:31;;;;;;;;;;;;;;;;;;6223828;23;19919;-89
2022/11/15 19:11:57;;;;;;;;;;;;;;;;;;6224302;23;19919;-88
2022/11/15 19:14:27;;;;;;;;;;;;;;;;;;6225395;23;19938;-89
2022/11/15 19:16:53;;;;;;;;;;;;;;;;;;6229506;23;20573;-89
2022/11/15 19:19:19;;;;;;;;;;;;;;;;;;6224704;23;20408;-89
2022/11/15 19:21:46;;;;;;;;;;;;;;;;;;6223045;22;19919;-89
2022/11/15 19:24:12;;;;;;;;;;;;;;;;;;6226077;23;19919;-89
2022/11/15 19:26:38;;;;;;;;;;;;;;;;;;6224811;23;20629;-89
2022/11/15 19:29:04;;;;;;;;;;;;;;;;;;6229541;23;19969;-89
2022/11/15 19:31:30;;;;;;;;;;;;;;;;;;6226024;23;19936;-89
2022/11/15 19:33:56;;;;;;;;;;;;;;;;;;6226955;23;19919;-89
2022/11/15 19:36:23;;;;;;;;;;;;;;;;;;6225586;23;19919;-89
2022/11/15 19:38:49;;;;;;;;;;;;;;;;;;6228827;23;19965;-89
2022/11/15 19:41:15;;;;;;;;;;;;;;;;;;6230569;22;20082;-89
2022/11/15 19:43:47;;;;;;;;;;;;;;;;;;6230461;23;19990;-88
2022/11/15 19:46:13;;;;;;;;;;;;;;;;;;6229466;23;19965;-89
2022/11/15 19:48:39;;;;;;;;;;;;;;;;;;6225521;23;20484;-88
2022/11/15 19:51:05;;;;;;;;;;;;;;;;;;6228333;23;19923;-88
2022/11/15 19:53:31;;;;;;;;;;;;;;;;;;6225630;23;19920;-89
2022/11/15 19:55:57;;;;;;;;;;;;;;;;;;6228412;23;19916;-88
2022/11/15 19:58:23;;;;;;;;;;;;;;;;;;6224684;23;19926;-88
2022/11/15 20:00:49;;;;;;;;;;;;;;;;;;6229612;23;19920;-88
2022/11/15 20:03:15;;;;;;;;;;;;;;;;;;6230094;22;20280;-88
2022/11/15 20:05:44;;;;;;;;;;;;;;;;;;6234831;22;20045;-88
2022/11/15 20:08:10;;;;;;;;;;;;;;;;;;6232208;22;20333;-89
2022/11/15 20:10:36;;;;;;;;;;;;;;;;;;6230244;22;19919;-89
2022/11/15 20:13:02;;;;;;;;;;;;;;;;;;6209033;22;19919;-88
2022/11/15 20:15:28;;;;;;;;;;;;;;;;;;6203770;22;20364;-89
2022/11/15 20:17:54;;;;;;;;;;;;;;;;;;6228272;22;19919;-88
2022/11/15 20:20:20;;;;;;;;;;;;;;;;;;6254399;22;19946;-89
2022/11/15 20:22:46;;;;;;;;;;;;;;;;;;6230081;22;19982;-88
2022/11/15 20:25:12;;;;;;;;;;;;;;;;;;6231821;22;19954;-89
2022/11/15 20:27:38;;;;;;;;;;;;;;;;;;6202289;22;19955;-89
2022/11/15 20:30:04;;;;;;;;;;;;;;;;;;6228325;22;19927;-88
2022/11/15 20:32:30;;;;;;;;;;;;;;;;;;6229751;22;19968;-89
2022/11/15 20:34:56;;;;;;;;;;;;;;;;;;6234846;22;20262;-88
2022/11/15 20:37:22;;;;;;;;;;;;;;;;;;6230956;22;19953;-88
2022/11/15 20:39:48;;;;;;;;;;;;;;;;;;6232190;22;19915;-89
2022/11/15 20:42:14;;;;;;;;;;;;;;;;;;6228309;22;19919;-89
2022/11/15 20:44:40;;;;;;;;;;;;;;;;;;6227201;22;19994;-88
2022/11/15 20:47:06;;;;;;;;;;;;;;;;;;6234039;22;20046;-89
2022/11/15 20:49:32;;;;;;;;;;;;;;;;;;6230090;22;19999;-90
2022/11/15 20:51:58;;;;;;;;;;;;;;;;;;6228876;22;19986;-89
2022/11/15 20:54:24;;;;;;;;;;;;;;;;;;6230501;22;20185;-88
2022/11/15 20:56:50;;;;;;;;;;;;;;;;;;6234368;22;19916;-89
2022/11/15 20:59:19;;;;;;;;;;;;;;;;;;6234050;22;19919;-88
2022/11/15 21:01:46;;;;;;;;;;;;;;;;;;6233176;22;20375;-88
2022/11/15 21:04:25;;;;;;;;;;;;;;;;;;6202134;22;19994;-88
2022/11/15 21:12:30;;;;;;;;;;;;;;;;;;6227973;22;19919;-88
2022/11/15 21:15:05;;;;;;;;;;;;;;;;;;6232283;22;20252;-88
2022/11/15 21:17:34;;;;;;;;;;;;;;;;;;6257888;22;19926;-88
2022/11/15 21:20:03;;;;;;;;;;;;;;;;;;6231822;22;19959;-88
2022/11/15 21:22:35;;;;;;;;;;;;;;;;;;6227499;22;19919;-89
2022/11/15 21:25:04;;;;;;;;;;;;;;;;;;6228913;22;20632;-89
2022/11/15 21:27:39;;;;;;;;;;;;;;;;;;6230393;22;20955;-89
2022/11/15 21:33:20;;;;;;;;;;;;;;;;;;6213386;23;20280;-89
2022/11/15 21:35:56;;;;;;;;;;;;;;;;;;6134299;23;19931;-89
2022/11/15 21:38:28;;;;;;;;;;;;;;;;;;6085346;23;19956;-89
2022/11/15 21:40:54;;;;;;;;;;;;;;;;;;6086780;23;19927;-89
2022/11/15 21:43:25;;;;;;;;;;;;;;;;;;6087054;23;19995;-89
2022/11/15 21:45:51;;;;;;;;;;;;;;;;;;6084937;23;20357;-89
2022/11/15 21:48:20;;;;;;;;;;;;;;;;;;6082035;23;19921;-89
2022/11/15 21:50:49;;;;;;;;;;;;;;;;;;6134405;23;20003;-90
2022/11/15 21:53:21;;;;;;;;;;;;;;;;;;6081549;23;19921;-90
2022/11/15 21:55:52;;;;;;;;;;;;;;;;;;6082711;23;20385;-89
2022/11/15 21:58:21;;;;;;;;;;;;;;;;;;6133174;23;20334;-89
2022/11/15 22:03:31;;;;;;;;;;;;;;;;;;6137457;23;19975;-89
2022/11/15 22:05:57;;;;;;;;;;;;;;;;;;6129223;22;19931;-90
2022/11/15 22:08:23;;;;;;;;;;;;;;;;;;6230312;22;19919;-89
2022/11/15 22:10:49;;;;;;;;;;;;;;;;;;6232893;22;20057;-89
2022/11/15 22:13:15;;;;;;;;;;;;;;;;;;6228692;22;19926;-90
2022/11/15 22:15:47;;;;;;;;;;;;;;;;;;6227161;22;19972;-90
2022/11/15 22:18:13;;;;;;;;;;;;;;;;;;6227815;22;19930;-89
2022/11/15 22:20:39;;;;;;;;;;;;;;;;;;6199538;22;20026;-90
2022/11/15 22:23:05;;;;;;;;;;;;;;;;;;6230121;22;19919;-89
2022/11/15 22:25:31;;;;;;;;;;;;;;;;;;6228750;22;20390;-89
2022/11/15 22:27:57;;;;;;;;;;;;;;;;;;6230329;22;19919;-90
2022/11/15 22:30:23;;;;;;;;;;;;;;;;;;6227174;22;19930;-90
2022/11/15 22:32:49;;;;;;;;;;;;;;;;;;6232991;22;20022;-89
2022/11/15 22:35:18;;;;;;;;;;;;;;;;;;6228547;22;20351;-89
2022/11/15 22:37:47;;;;;;;;;;;;;;;;;;6254305;22;19919;-89
2022/11/15 22:40:13;;;;;;;;;;;;;;;;;;6231833;22;19916;-89
2022/11/15 22:42:39;;;;;;;;;;;;;;;;;;6229102;22;19919;-88
2022/11/15 22:45:05;;;;;;;;;;;;;;;;;;6235780;22;20244;-89
2022/11/15 22:47:31;;;;;;;;;;;;;;;;;;6231416;22;20423;-89
2022/11/15 22:49:57;;;;;;;;;;;;;;;;;;6235675;22;19923;-89
2022/11/15 22:52:23;;;;;;;;;;;;;;;;;;6231369;22;19942;-89
2022/11/15 22:54:49;;;;;;;;;;;;;;;;;;6232998;22;20352;-89
2022/11/15 22:57:15;;;;;;;;;;;;;;;;;;6234711;22;19915;-89
2022/11/15 22:59:41;;;;;;;;;;;;;;;;;;6230997;22;19925;-89
2022/11/15 23:02:07;;;;;;;;;;;;;;;;;;6235324;22;19986;-89
2022/11/15 23:04:33;;;;;;;;;;;;;;;;;;6230558;22;19973;-90
2022/11/15 23:06:59;;;;;;;;;;;;;;;;;;6233519;22;19919;-90
2022/11/15 23:09:25;;;;;;;;;;;;;;;;;;6230376;22;19950;-89
2022/11/15 23:14:39;;;;;;;;;;;;;;;;;;6229241;22;20201;-90
2022/11/15 23:17:07;;;;;;;;;;;;;;;;;;6255372;22;19958;-90
2022/11/15 23:19:33;;;;;;;;;;;;;;;;;;6201591;22;19930;-89
2022/11/15 23:24:44;;;;;;;;;;;;;;;;;;6259335;22;19986;-89
2022/11/15 23:27:19;;;;;;;;;;;;;;;;;;6231077;22;19919;-89
2022/11/15 23:35:15;;;;;;;;;;;;;;;;;;6232875;22;20346;-90
2022/11/15 23:37:41;;;;;;;;;;;;;;;;;;6204913;22;20407;-89
2022/11/15 23:40:07;;;;;;;;;;;;;;;;;;6204834;22;20229;-89
2022/11/15 23:42:33;;;;;;;;;;;;;;;;;;6206510;22;19958;-89
2022/11/15 23:45:01;;;;;;;;;;;;;;;;;;6208937;22;19915;-89
2022/11/15 23:47:30;;;;;;;;;;;;;;;;;;6230831;22;19977;-89
2022/11/15 23:49:56;;;;;;;;;;;;;;;;;;6232182;22;19923;-89
2022/11/15 23:52:25;;;;;;;;;;;;;;;;;;6231991;22;20347;-89
2022/11/15 23:54:51;;;;;;;;;;;;;;;;;;6230548;22;19940;-89
2022/11/15 23:57:28;;;;;;;;;;;;;;;;;;6229591;22;20006;-89
2022/11/15 23:59:54;;;;;;;;;;;;;;;;;;6231485;22;19972;-89
